createdAt,value
2023-03-06T00:00:23.999Z,5.63
2023-03-06T00:02:52.143Z,5.61
2023-03-06T00:05:19.349Z,5.56
2023-03-06T00:07:45.888Z,5.54
2023-03-06T00:10:19.004Z,5.52
2023-03-06T00:12:45.561Z,5.46
2023-03-06T00:15:13.508Z,5.42
2023-03-06T00:17:40.797Z,5.39
2023-03-06T00:20:08.872Z,5.42
2023-03-06T00:22:35.648Z,5.36
2023-03-06T00:25:02.156Z,5.34
2023-03-06T00:27:30.603Z,5.47
2023-03-06T00:29:58.585Z,5.46
2023-03-06T00:32:26.405Z,5.42
2023-03-06T00:34:54.196Z,5.46
2023-03-06T00:37:22.821Z,5.53
2023-03-06T00:39:49.673Z,5.44
2023-03-06T00:42:17.518Z,5.37
2023-03-06T00:44:45.238Z,5.29
2023-03-06T00:47:12.338Z,5.33
2023-03-06T00:49:39.090Z,5.38
2023-03-06T00:52:05.740Z,5.23
2023-03-06T00:54:32.291Z,5.23
2023-03-06T00:56:58.859Z,5.16
2023-03-06T00:59:25.422Z,5.06
2023-03-06T01:01:51.983Z,5.07
2023-03-06T01:04:18.594Z,5.06
2023-03-06T01:06:45.469Z,5.00
2023-03-06T01:09:12.326Z,5.03
2023-03-06T01:11:38.860Z,5.11
2023-03-06T01:14:05.403Z,5.17
2023-03-06T01:16:32.068Z,5.09
2023-03-06T01:18:58.940Z,4.92
2023-03-06T01:21:25.919Z,4.93
2023-03-06T01:23:52.482Z,4.82
2023-03-06T01:26:19.050Z,4.76
2023-03-06T01:28:45.890Z,4.75
2023-03-06T01:31:12.762Z,4.73
2023-03-06T01:33:39.331Z,4.84
2023-03-06T01:36:08.430Z,4.71
2023-03-06T01:38:36.037Z,4.71
2023-03-06T01:41:04.004Z,4.78
2023-03-06T01:43:36.096Z,4.71
2023-03-06T01:46:21.310Z,4.61
2023-03-06T01:48:50.151Z,4.61
2023-03-06T01:51:17.448Z,4.62
2023-03-06T01:53:45.984Z,4.55
2023-03-06T01:56:14.206Z,4.53
2023-03-06T01:58:43.791Z,4.50
2023-03-06T02:01:13.184Z,4.53
2023-03-06T02:03:41.471Z,4.57
2023-03-06T02:06:08.710Z,4.53
2023-03-06T02:08:35.563Z,4.47
2023-03-06T02:11:07.916Z,4.39
2023-03-06T02:13:35.661Z,4.41
2023-03-06T02:16:02.430Z,4.40
2023-03-06T02:18:30.277Z,4.42
2023-03-06T02:21:04.022Z,4.44
2023-03-06T02:23:36.733Z,4.39
2023-03-06T02:26:04.149Z,4.30
2023-03-06T02:28:30.842Z,4.25
2023-03-06T02:30:57.528Z,4.30
2023-03-06T02:33:27.232Z,4.28
2023-03-06T02:35:59.878Z,4.22
2023-03-06T02:38:37.414Z,4.09
2023-03-06T02:41:07.684Z,4.08
2023-03-06T02:43:38.083Z,4.13
2023-03-06T02:46:04.758Z,4.14
2023-03-06T02:48:31.377Z,4.13
2023-03-06T02:50:58.056Z,4.13
2023-03-06T02:53:25.008Z,4.09
2023-03-06T02:55:51.966Z,4.08
2023-03-06T02:58:22.309Z,4.09
2023-03-06T03:00:49.606Z,3.88
2023-03-06T03:03:17.354Z,3.77
2023-03-06T03:05:43.964Z,3.76
2023-03-06T03:08:10.756Z,3.99
2023-03-06T03:10:37.280Z,3.92
2023-03-06T03:13:03.859Z,3.83
2023-03-06T03:15:30.425Z,3.80
2023-03-06T03:17:56.985Z,3.79
2023-03-06T03:20:23.959Z,3.76
2023-03-06T03:22:53.330Z,3.78
2023-03-06T03:25:20.927Z,3.75
2023-03-06T03:27:47.703Z,3.70
2023-03-06T03:30:15.367Z,3.72
2023-03-06T03:32:41.905Z,3.72
2023-03-06T03:35:09.630Z,3.70
2023-03-06T03:37:36.752Z,3.76
2023-03-06T03:40:05.127Z,3.65
2023-03-06T03:42:31.751Z,3.67
2023-03-06T03:44:58.290Z,3.64
2023-03-06T03:47:25.288Z,3.63
2023-03-06T03:49:51.830Z,3.59
2023-03-06T03:52:18.348Z,3.55
2023-03-06T03:54:44.942Z,3.50
2023-03-06T03:57:11.677Z,3.49
2023-03-06T03:59:38.281Z,3.49
2023-03-06T04:02:05.131Z,3.43
2023-03-06T04:04:31.832Z,3.49
2023-03-06T04:06:58.536Z,3.46
2023-03-06T04:09:25.396Z,3.40
2023-03-06T04:11:52.160Z,3.40
2023-03-06T04:14:18.812Z,3.42
2023-03-06T04:16:45.360Z,3.37
2023-03-06T04:19:11.888Z,3.37
2023-03-06T04:21:38.433Z,3.28
2023-03-06T04:24:05.453Z,3.37
2023-03-06T04:26:32.027Z,3.13
2023-03-06T04:28:59.030Z,3.31
2023-03-06T04:31:25.722Z,3.24
2023-03-06T04:33:52.257Z,3.28
2023-03-06T04:36:30.245Z,3.33
2023-03-06T04:38:57.489Z,3.29
2023-03-06T04:41:24.167Z,3.32
2023-03-06T04:43:51.264Z,3.24
2023-03-06T04:46:17.917Z,3.37
2023-03-06T04:48:44.570Z,3.22
2023-03-06T04:51:13.760Z,3.15
2023-03-06T04:53:40.404Z,3.20
2023-03-06T04:56:07.439Z,3.24
2023-03-06T04:58:34.056Z,3.35
2023-03-06T05:01:00.808Z,3.32
2023-03-06T05:03:27.480Z,3.32
2023-03-06T05:05:54.032Z,3.35
2023-03-06T05:08:20.854Z,3.37
2023-03-06T05:10:56.083Z,3.32
2023-03-06T05:13:22.687Z,3.35
2023-03-06T05:15:49.333Z,3.48
2023-03-06T05:18:16.849Z,3.32
2023-03-06T05:20:43.637Z,3.29
2023-03-06T05:23:10.196Z,3.51
2023-03-06T05:25:39.502Z,3.50
2023-03-06T05:28:07.167Z,3.42
2023-03-06T05:30:33.966Z,3.37
2023-03-06T05:33:01.364Z,3.34
2023-03-06T05:35:28.280Z,3.36
2023-03-06T05:37:55.077Z,3.33
2023-03-06T05:40:21.667Z,3.27
2023-03-06T05:42:48.226Z,3.19
2023-03-06T05:45:15.201Z,3.21
2023-03-06T05:47:41.752Z,3.20
2023-03-06T05:50:10.530Z,3.19
2023-03-06T05:52:39.570Z,3.32
2023-03-06T05:55:06.854Z,3.21
2023-03-06T05:57:33.537Z,3.15
2023-03-06T06:00:00.147Z,3.16
2023-03-06T06:02:26.859Z,3.05
2023-03-06T06:04:53.584Z,3.09
2023-03-06T06:07:20.291Z,3.13
2023-03-06T06:09:46.817Z,3.01
2023-03-06T06:12:15.419Z,3.11
2023-03-06T06:14:42.048Z,3.29
2023-03-06T06:17:09.049Z,3.23
2023-03-06T06:19:35.768Z,3.26
2023-03-06T06:22:05.456Z,3.22
2023-03-06T06:24:33.035Z,3.17
2023-03-06T06:27:03.395Z,3.34
2023-03-06T06:29:30.882Z,3.36
2023-03-06T06:31:57.670Z,3.15
2023-03-06T06:34:25.440Z,3.34
2023-03-06T06:36:53.734Z,3.36
2023-03-06T06:39:22.571Z,3.22
2023-03-06T06:42:05.582Z,3.32
2023-03-06T06:44:38.512Z,3.49
2023-03-06T06:47:23.977Z,3.55
2023-03-06T06:49:52.806Z,3.66
2023-03-06T06:52:19.532Z,3.50
2023-03-06T06:54:46.224Z,3.66
2023-03-06T06:57:13.262Z,3.74
2023-03-06T06:59:39.802Z,3.58
2023-03-06T07:02:07.233Z,3.51
2023-03-06T07:04:34.126Z,3.69
2023-03-06T07:07:01.225Z,3.69
2023-03-06T07:09:30.046Z,3.52
2023-03-06T07:11:56.784Z,3.59
2023-03-06T07:14:23.544Z,3.66
2023-03-06T07:16:50.236Z,3.65
2023-03-06T07:19:16.807Z,3.67
2023-03-06T07:21:43.334Z,3.87
2023-03-06T07:24:09.876Z,3.78
2023-03-06T07:26:36.840Z,3.95
2023-03-06T07:29:04.512Z,4.10
2023-03-06T07:31:31.392Z,4.24
2023-03-06T07:33:58.050Z,4.38
2023-03-06T07:36:24.884Z,4.49
2023-03-06T07:38:51.419Z,4.31
2023-03-06T07:41:21.879Z,4.47
2023-03-06T07:43:49.787Z,4.31
2023-03-06T07:46:16.400Z,4.31
2023-03-06T07:48:43.178Z,4.25
2023-03-06T07:51:15.461Z,4.21
2023-03-06T07:53:42.259Z,4.29
2023-03-06T07:56:09.512Z,4.47
2023-03-06T07:58:37.790Z,4.56
2023-03-06T08:01:09.731Z,4.63
2023-03-06T08:03:36.332Z,4.39
2023-03-06T08:06:17.876Z,4.29
2023-03-06T08:08:46.564Z,4.35
2023-03-06T08:11:15.031Z,4.52
2023-03-06T08:13:43.079Z,4.61
2023-03-06T08:16:10.365Z,4.62
2023-03-06T08:18:40.069Z,4.60
2023-03-06T08:21:10.509Z,4.63
2023-03-06T08:23:37.737Z,4.66
2023-03-06T08:26:11.847Z,4.77
2023-03-06T08:28:38.434Z,4.70
2023-03-06T08:31:26.424Z,4.75
2023-03-06T08:33:54.692Z,4.94
2023-03-06T08:36:21.223Z,5.01
2023-03-06T08:38:47.949Z,4.91
2023-03-06T08:41:14.473Z,5.03
2023-03-06T08:43:41.060Z,5.07
2023-03-06T08:46:07.693Z,5.11
2023-03-06T08:48:34.416Z,5.21
2023-03-06T08:51:01.033Z,5.33
2023-03-06T08:53:41.752Z,5.32
2023-03-06T08:56:16.424Z,5.44
2023-03-06T08:58:43.485Z,5.64
2023-03-06T09:01:18.103Z,5.74
2023-03-06T09:03:44.645Z,5.79
2023-03-06T09:06:11.549Z,5.94
2023-03-06T09:08:38.560Z,5.98
2023-03-06T09:11:06.043Z,5.79
2023-03-06T09:13:32.610Z,6.02
2023-03-06T09:15:59.152Z,5.96
2023-03-06T09:18:25.759Z,5.93
2023-03-06T09:20:52.368Z,6.12
2023-03-06T09:23:18.921Z,6.12
2023-03-06T09:25:46.158Z,6.30
2023-03-06T09:28:12.821Z,6.24
2023-03-06T09:30:40.751Z,6.42
2023-03-06T09:33:07.841Z,6.41
2023-03-06T09:35:34.385Z,6.12
2023-03-06T09:38:01.129Z,6.18
2023-03-06T09:41:02.714Z,6.08
2023-03-06T09:43:35.470Z,6.10
2023-03-06T09:46:13.678Z,6.04
2023-03-06T09:49:13.073Z,6.14
2023-03-06T09:51:54.550Z,6.12
2023-03-06T09:54:34.554Z,6.35
2023-03-06T09:57:01.076Z,6.66
2023-03-06T09:59:28.583Z,6.77
2023-03-06T10:02:09.998Z,6.34
2023-03-06T10:04:42.559Z,6.34
2023-03-06T10:07:18.471Z,6.54
2023-03-06T10:09:57.129Z,6.66
2023-03-06T10:12:25.602Z,6.98
2023-03-06T10:15:10.820Z,6.56
2023-03-06T10:17:43.294Z,6.52
2023-03-06T10:20:22.167Z,6.72
2023-03-06T10:23:30.379Z,7.00
2023-03-06T10:26:12.150Z,7.03
2023-03-06T10:28:54.029Z,7.17
2023-03-06T10:31:24.473Z,7.23
2023-03-06T10:34:18.969Z,7.30
2023-03-06T10:36:45.552Z,7.45
2023-03-06T10:39:17.357Z,7.40
2023-03-06T10:41:45.396Z,7.38
2023-03-06T10:44:12.468Z,7.60
2023-03-06T10:46:45.003Z,7.68
2023-03-06T10:49:33.928Z,7.59
2023-03-06T10:52:05.722Z,7.98
2023-03-06T10:54:38.198Z,7.70
2023-03-06T10:57:20.067Z,7.43
2023-03-06T11:00:22.923Z,7.63
2023-03-06T11:03:17.369Z,7.67
2023-03-06T11:06:13.025Z,7.36
2023-03-06T11:08:42.000Z,7.66
2023-03-06T11:11:12.950Z,7.81
2023-03-06T11:13:42.121Z,7.83
2023-03-06T11:16:27.390Z,8.31
2023-03-06T11:19:05.496Z,8.21
2023-03-06T11:21:35.353Z,7.86
2023-03-06T11:24:18.643Z,7.70
2023-03-06T11:26:59.605Z,8.18
2023-03-06T11:29:43.917Z,8.25
2023-03-06T11:32:13.467Z,7.81
2023-03-06T11:34:59.239Z,7.87
2023-03-06T11:37:34.476Z,7.76
2023-03-06T11:40:01.085Z,7.62
2023-03-06T11:42:37.880Z,7.85
2023-03-06T11:45:23.350Z,8.04
2023-03-06T11:48:14.201Z,8.01
2023-03-06T11:50:42.883Z,7.99
2023-03-06T11:53:18.667Z,8.14
2023-03-06T11:55:51.134Z,8.12
2023-03-06T11:58:54.929Z,8.25
2023-03-06T12:01:47.887Z,8.40
2023-03-06T12:04:14.389Z,8.65
2023-03-06T12:06:59.544Z,8.53
2023-03-06T12:09:49.110Z,8.81
2023-03-06T12:12:46.674Z,8.93
2023-03-06T12:15:23.847Z,8.43
2023-03-06T12:18:14.708Z,8.53
2023-03-06T12:20:56.714Z,8.59
2023-03-06T12:23:33.058Z,8.66
2023-03-06T12:26:21.923Z,8.49
2023-03-06T12:28:59.425Z,8.66
2023-03-06T12:31:32.220Z,8.11
2023-03-06T12:34:11.214Z,8.41
2023-03-06T12:36:56.381Z,8.41
2023-03-06T12:39:47.669Z,8.61
2023-03-06T12:42:33.026Z,8.73
2023-03-06T12:45:29.577Z,8.54
2023-03-06T12:47:57.267Z,8.80
2023-03-06T12:50:32.583Z,8.64
2023-03-06T12:53:03.826Z,8.41
2023-03-06T12:55:39.978Z,8.57
2023-03-06T12:58:28.074Z,8.75
2023-03-06T13:01:13.871Z,8.47
2023-03-06T13:04:08.132Z,8.35
2023-03-06T13:07:04.132Z,8.64
2023-03-06T13:09:40.087Z,8.66
2023-03-06T13:12:28.342Z,8.47
2023-03-06T13:14:58.384Z,8.18
2023-03-06T13:17:34.810Z,8.51
2023-03-06T13:20:13.847Z,8.55
2023-03-06T13:22:42.145Z,8.93
2023-03-06T13:25:32.726Z,8.88
2023-03-06T13:28:03.323Z,8.87
2023-03-06T13:30:38.766Z,8.73
2023-03-06T13:33:30.117Z,8.83
2023-03-06T13:35:58.791Z,8.85
2023-03-06T13:38:36.438Z,8.87
2023-03-06T13:41:28.097Z,9.05
2023-03-06T13:43:56.794Z,8.72
2023-03-06T13:46:37.195Z,8.97
2023-03-06T13:49:14.852Z,8.96
2023-03-06T13:51:43.218Z,9.28
2023-03-06T13:54:28.563Z,9.48
2023-03-06T13:57:30.079Z,9.27
2023-03-06T14:00:31.401Z,9.41
2023-03-06T14:03:22.633Z,9.38
2023-03-06T14:05:50.793Z,9.02
2023-03-06T14:08:21.925Z,9.25
2023-03-06T14:11:00.829Z,9.29
2023-03-06T14:13:41.825Z,9.40
2023-03-06T14:16:20.767Z,9.17
2023-03-06T14:18:49.514Z,9.15
2023-03-06T14:21:42.349Z,9.27
2023-03-06T14:24:32.570Z,9.32
2023-03-06T14:26:59.151Z,9.36
2023-03-06T14:29:27.999Z,9.57
2023-03-06T14:31:57.537Z,9.52
2023-03-06T14:34:35.866Z,9.19
2023-03-06T14:37:08.099Z,9.22
2023-03-06T14:39:37.290Z,9.12
2023-03-06T14:42:21.953Z,9.02
2023-03-06T14:45:00.137Z,9.21
2023-03-06T14:47:29.757Z,9.14
2023-03-06T14:50:19.341Z,9.32
2023-03-06T14:52:46.372Z,9.25
2023-03-06T14:55:20.770Z,9.04
2023-03-06T14:57:51.150Z,9.11
2023-03-06T15:00:23.190Z,9.25
2023-03-06T15:02:52.523Z,9.22
2023-03-06T15:05:28.928Z,9.01
2023-03-06T15:08:00.187Z,9.19
2023-03-06T15:10:30.305Z,9.17
2023-03-06T15:13:10.330Z,9.32
2023-03-06T15:15:37.121Z,9.03
2023-03-06T15:18:34.396Z,9.18
2023-03-06T15:21:07.790Z,8.98
2023-03-06T15:23:40.133Z,8.94
2023-03-06T15:26:29.611Z,8.87
2023-03-06T15:29:09.612Z,9.10
2023-03-06T15:31:42.147Z,9.00
2023-03-06T15:34:11.529Z,8.91
2023-03-06T15:36:47.384Z,9.00
2023-03-06T15:39:31.225Z,9.10
2023-03-06T15:42:05.966Z,9.06
2023-03-06T15:44:33.007Z,8.77
2023-03-06T15:47:08.498Z,8.95
2023-03-06T15:49:38.150Z,9.10
2023-03-06T15:52:06.939Z,8.99
2023-03-06T15:54:33.791Z,8.68
2023-03-06T15:57:00.874Z,8.70
2023-03-06T15:59:33.235Z,8.53
2023-03-06T16:02:10.731Z,8.80
2023-03-06T16:04:37.647Z,8.74
2023-03-06T16:07:04.201Z,8.75
2023-03-06T16:09:30.791Z,8.69
2023-03-06T16:11:57.346Z,8.68
2023-03-06T16:14:24.082Z,8.71
2023-03-06T16:16:52.607Z,8.75
2023-03-06T16:19:28.186Z,8.81
2023-03-06T16:21:59.021Z,8.88
2023-03-06T16:24:26.618Z,8.95
2023-03-06T16:26:54.986Z,8.89
2023-03-06T16:29:24.020Z,8.68
2023-03-06T16:31:50.766Z,8.60
2023-03-06T16:34:19.916Z,8.62
2023-03-06T16:36:48.005Z,8.76
2023-03-06T16:39:19.931Z,8.84
2023-03-06T16:41:47.213Z,8.76
2023-03-06T16:44:13.986Z,8.93
2023-03-06T16:46:47.249Z,8.74
2023-03-06T16:49:25.026Z,8.82
2023-03-06T16:51:52.953Z,8.75
2023-03-06T16:54:20.276Z,8.79
2023-03-06T16:56:46.934Z,8.67
2023-03-06T16:59:13.671Z,8.88
2023-03-06T17:01:43.107Z,8.66
2023-03-06T17:04:11.194Z,8.70
2023-03-06T17:06:38.433Z,8.75
2023-03-06T17:09:05.366Z,8.62
2023-03-06T17:11:31.910Z,8.65
2023-03-06T17:13:58.557Z,8.58
2023-03-06T17:16:25.159Z,8.51
2023-03-06T17:18:52.445Z,8.42
2023-03-06T17:21:19.165Z,8.48
2023-03-06T17:23:46.067Z,8.37
2023-03-06T17:26:15.373Z,8.35
2023-03-06T17:28:43.142Z,8.44
2023-03-06T17:31:18.054Z,8.26
2023-03-06T17:33:45.440Z,8.21
2023-03-06T17:36:14.394Z,8.14
2023-03-06T17:38:41.954Z,8.09
2023-03-06T17:41:10.534Z,8.07
2023-03-06T17:43:38.990Z,8.05
2023-03-06T17:46:10.668Z,7.96
2023-03-06T17:48:37.607Z,7.86
2023-03-06T17:51:04.848Z,7.90
2023-03-06T17:53:31.955Z,7.88
2023-03-06T17:55:59.107Z,7.90
2023-03-06T17:58:27.064Z,7.85
2023-03-06T18:00:54.094Z,7.77
2023-03-06T18:03:20.646Z,7.68
2023-03-06T18:05:47.288Z,7.68
2023-03-06T18:08:14.592Z,7.63
2023-03-06T18:10:42.011Z,7.61
2023-03-06T18:13:10.537Z,7.54
2023-03-06T18:15:40.943Z,7.41
2023-03-06T18:18:08.821Z,7.38
2023-03-06T18:20:41.213Z,7.36
2023-03-06T18:23:07.931Z,7.33
2023-03-06T18:25:34.769Z,7.28
2023-03-06T18:28:01.530Z,7.26
2023-03-06T18:30:28.093Z,7.23
2023-03-06T18:32:54.700Z,7.22
2023-03-06T18:35:21.792Z,7.21
2023-03-06T18:37:48.509Z,7.15
2023-03-06T18:40:15.630Z,7.09
2023-03-06T18:42:42.270Z,7.06
2023-03-06T18:45:09.931Z,7.07
2023-03-06T18:47:36.491Z,6.95
2023-03-06T18:50:03.266Z,6.91
2023-03-06T18:52:29.860Z,6.88
2023-03-06T18:54:56.550Z,6.82
2023-03-06T18:57:23.102Z,6.75
2023-03-06T18:59:50.107Z,6.76
2023-03-06T19:02:17.088Z,6.74
2023-03-06T19:04:43.607Z,6.70
2023-03-06T19:07:10.190Z,6.64
2023-03-06T19:09:36.803Z,6.60
2023-03-06T19:12:03.578Z,6.56
2023-03-06T19:14:30.397Z,6.53
2023-03-06T19:16:57.063Z,6.58
2023-03-06T19:19:26.359Z,6.51
2023-03-06T19:21:53.557Z,6.54
2023-03-06T19:24:20.125Z,6.54
2023-03-06T19:26:46.641Z,6.43
2023-03-06T19:29:13.235Z,6.35
2023-03-06T19:31:39.796Z,6.31
2023-03-06T19:34:06.394Z,6.25
2023-03-06T19:36:34.271Z,6.23
2023-03-06T19:39:03.662Z,6.18
2023-03-06T19:41:31.230Z,6.13
2023-03-06T19:43:59.837Z,6.13
2023-03-06T19:46:27.115Z,6.11
2023-03-06T19:48:57.733Z,6.06
2023-03-06T19:51:25.608Z,6.04
2023-03-06T19:53:52.527Z,6.03
2023-03-06T19:56:26.269Z,6.08
2023-03-06T19:58:53.179Z,6.09
2023-03-06T20:01:21.428Z,6.10
2023-03-06T20:03:50.005Z,6.05
2023-03-06T20:06:19.213Z,6.00
2023-03-06T20:08:47.255Z,5.94
2023-03-06T20:11:16.533Z,5.98
2023-03-06T20:13:47.369Z,5.93
2023-03-06T20:16:14.705Z,5.91
2023-03-06T20:18:41.509Z,5.88
2023-03-06T20:21:08.086Z,5.86
2023-03-06T20:23:34.978Z,5.91
2023-03-06T20:26:03.551Z,5.95
2023-03-06T20:28:30.453Z,5.89
2023-03-06T20:30:57.346Z,5.86
2023-03-06T20:33:24.033Z,5.84
2023-03-06T20:35:50.646Z,5.85
2023-03-06T20:38:17.216Z,5.91
2023-03-06T20:40:44.033Z,5.83
2023-03-06T20:43:10.756Z,5.85
2023-03-06T20:45:37.355Z,5.80
2023-03-06T20:48:03.934Z,5.78
2023-03-06T20:50:31.204Z,5.77
2023-03-06T20:52:58.879Z,5.78
2023-03-06T20:55:25.606Z,5.66
2023-03-06T20:57:52.551Z,5.59
2023-03-06T21:00:20.941Z,5.52
2023-03-06T21:02:47.540Z,5.57
2023-03-06T21:05:14.283Z,5.52
2023-03-06T21:07:40.968Z,5.54
2023-03-06T21:10:08.633Z,5.56
2023-03-06T21:12:35.123Z,5.56
2023-03-06T21:15:01.842Z,5.52
2023-03-06T21:17:30.252Z,5.51
2023-03-06T21:19:58.396Z,5.57
2023-03-06T21:22:25.463Z,5.63
2023-03-06T21:24:52.011Z,5.51
2023-03-06T21:27:18.545Z,5.49
2023-03-06T21:29:45.448Z,5.43
2023-03-06T21:32:12.029Z,5.41
2023-03-06T21:34:38.553Z,5.35
2023-03-06T21:37:05.072Z,5.39
2023-03-06T21:39:31.633Z,5.32
2023-03-06T21:41:58.178Z,5.27
2023-03-06T21:44:24.771Z,5.25
2023-03-06T21:46:51.324Z,5.19
2023-03-06T21:49:18.281Z,5.19
2023-03-06T21:51:44.805Z,5.11
2023-03-06T21:54:13.061Z,5.12
2023-03-06T21:56:39.667Z,5.17
2023-03-06T21:59:06.230Z,5.16
2023-03-06T22:01:32.808Z,5.16
2023-03-06T22:04:00.137Z,5.16
2023-03-06T22:06:30.395Z,5.13
2023-03-06T22:08:59.242Z,5.08
2023-03-06T22:11:28.156Z,5.01
2023-03-06T22:13:54.705Z,5.02
2023-03-06T22:16:21.813Z,5.01
2023-03-06T22:18:51.101Z,4.95
2023-03-06T22:21:19.596Z,5.00
2023-03-06T22:23:54.727Z,4.95
2023-03-06T22:26:21.597Z,4.89
2023-03-06T22:28:48.283Z,4.91
2023-03-06T22:31:20.370Z,4.97
2023-03-06T22:33:47.052Z,4.93
2023-03-06T22:36:15.774Z,4.87
2023-03-06T22:38:44.686Z,4.87
2023-03-06T22:41:12.758Z,4.81
2023-03-06T22:43:39.706Z,4.77
2023-03-06T22:46:11.857Z,4.80
2023-03-06T22:48:38.565Z,4.82
2023-03-06T22:51:07.403Z,4.79
2023-03-06T22:53:34.451Z,4.76
2023-03-06T22:56:02.521Z,4.69
2023-03-06T22:58:36.842Z,4.71
2023-03-06T23:01:08.918Z,4.75
2023-03-06T23:03:37.273Z,4.70
2023-03-06T23:06:16.044Z,4.56
2023-03-06T23:08:43.945Z,4.57
2023-03-06T23:11:13.278Z,4.54
2023-03-06T23:13:40.060Z,4.51
2023-03-06T23:16:08.894Z,4.49
2023-03-06T23:18:36.905Z,4.55
2023-03-06T23:21:14.489Z,4.54
2023-03-06T23:23:41.776Z,4.48
2023-03-06T23:26:09.063Z,4.50
2023-03-06T23:28:35.865Z,4.43
2023-03-06T23:31:14.710Z,4.50
2023-03-06T23:33:41.778Z,4.59
2023-03-06T23:36:11.320Z,4.59
2023-03-06T23:38:38.513Z,4.67
2023-03-06T23:41:12.214Z,4.57
2023-03-06T23:43:39.134Z,4.54
2023-03-06T23:46:07.300Z,4.61
2023-03-06T23:48:35.795Z,4.55
2023-03-06T23:51:07.372Z,4.54
2023-03-06T23:53:34.087Z,4.59
2023-03-06T23:56:00.857Z,4.45
2023-03-06T23:58:27.473Z,4.35
